createdAt,value
2019-02-16T00:00:45.228Z,35.73
2019-02-16T00:03:22.715Z,37.30
2019-02-16T00:05:58.065Z,36.83
2019-02-16T00:08:33.388Z,33.97
2019-02-16T00:11:08.730Z,39.63
2019-02-16T00:13:44.070Z,31.43
2019-02-16T00:16:20.019Z,28.93
2019-02-16T00:18:56.770Z,28.23
2019-02-16T00:21:31.362Z,36.33
2019-02-16T00:24:08.112Z,44.03
2019-02-16T00:26:43.161Z,32.03
2019-02-16T00:29:19.915Z,31.27
2019-02-16T00:31:54.950Z,30.37
2019-02-16T00:34:32.165Z,30.10
2019-02-16T00:37:10.965Z,26.77
2019-02-16T00:39:49.586Z,24.40
2019-02-16T00:42:25.646Z,27.83
2019-02-16T00:45:01.621Z,44.00
2019-02-16T00:47:37.540Z,29.07
2019-02-16T00:50:19.954Z,29.17
2019-02-16T00:52:54.982Z,32.83
2019-02-16T00:55:31.773Z,30.33
2019-02-16T00:58:07.217Z,27.63
2019-02-16T01:00:44.609Z,27.57
2019-02-16T01:03:20.062Z,31.57
2019-02-16T01:05:55.507Z,26.50
2019-02-16T01:08:30.850Z,31.77
2019-02-16T01:11:05.561Z,28.23
2019-02-16T01:13:40.729Z,28.83
2019-02-16T01:16:15.419Z,30.43
2019-02-16T01:18:50.298Z,32.67
2019-02-16T01:21:25.622Z,36.03
2019-02-16T01:24:00.948Z,31.43
2019-02-16T01:26:35.960Z,29.83
2019-02-16T01:29:11.239Z,31.80
2019-02-16T01:31:46.281Z,36.77
2019-02-16T01:34:21.294Z,28.27
2019-02-16T01:36:56.330Z,37.77
2019-02-16T01:39:31.345Z,31.73
2019-02-16T01:42:07.179Z,29.80
2019-02-16T01:44:42.186Z,25.70
2019-02-16T01:47:17.497Z,31.30
2019-02-16T01:49:52.528Z,33.30
2019-02-16T01:52:27.801Z,32.03
2019-02-16T01:55:02.818Z,36.43
2019-02-16T01:57:38.851Z,37.90
2019-02-16T02:00:13.890Z,30.57
2019-02-16T02:02:48.915Z,34.23
2019-02-16T02:05:23.946Z,36.73
2019-02-16T02:07:59.082Z,39.70
2019-02-16T02:10:34.204Z,27.03
2019-02-16T02:13:09.238Z,32.60
2019-02-16T02:15:44.273Z,27.83
2019-02-16T02:18:19.316Z,30.47
2019-02-16T02:20:54.439Z,33.90
2019-02-16T02:23:29.463Z,40.47
2019-02-16T02:26:04.773Z,25.47
2019-02-16T02:28:39.847Z,38.57
2019-02-16T02:31:14.858Z,24.20
2019-02-16T02:33:50.184Z,32.10
2019-02-16T02:36:26.540Z,25.43
2019-02-16T02:39:01.574Z,32.87
2019-02-16T02:41:38.218Z,28.53
2019-02-16T02:44:14.227Z,25.33
2019-02-16T02:46:49.260Z,29.80
2019-02-16T02:49:24.274Z,37.07
2019-02-16T02:51:59.637Z,26.40
2019-02-16T02:54:34.677Z,28.17
2019-02-16T02:57:09.455Z,21.43
2019-02-16T02:59:44.680Z,35.57
2019-02-16T03:02:19.899Z,30.73
2019-02-16T03:04:54.967Z,85.00
2019-02-16T03:07:29.612Z,45.47
2019-02-16T03:10:05.770Z,32.97
2019-02-16T03:12:42.429Z,28.77
2019-02-16T03:15:18.454Z,26.23
2019-02-16T03:17:53.473Z,22.90
2019-02-16T03:20:28.481Z,25.93
2019-02-16T03:23:16.635Z,27.30
2019-02-16T03:26:14.210Z,25.70
2019-02-16T03:28:51.523Z,21.33
2019-02-16T03:31:36.399Z,23.63
2019-02-16T03:34:27.878Z,50.90
2019-02-16T03:37:26.781Z,25.07
2019-02-16T03:40:02.195Z,28.53
2019-02-16T03:42:37.269Z,23.70
2019-02-16T03:45:12.294Z,25.40
2019-02-16T03:47:47.320Z,35.40
2019-02-16T03:50:22.368Z,25.80
2019-02-16T03:52:57.703Z,31.70
2019-02-16T03:55:32.415Z,27.03
2019-02-16T03:58:07.324Z,22.63
2019-02-16T04:00:42.366Z,29.60
2019-02-16T04:03:17.442Z,26.37
2019-02-16T04:05:52.771Z,30.93
2019-02-16T04:08:28.118Z,44.73
2019-02-16T04:11:04.108Z,27.00
2019-02-16T04:13:39.133Z,26.13
2019-02-16T04:16:14.556Z,25.00
2019-02-16T04:18:49.894Z,31.87
2019-02-16T04:21:25.008Z,28.77
2019-02-16T04:24:00.349Z,22.90
2019-02-16T04:26:36.434Z,34.03
2019-02-16T04:29:11.572Z,24.93
2019-02-16T04:31:46.672Z,25.00
2019-02-16T04:34:23.960Z,24.03
2019-02-16T04:36:58.667Z,27.53
2019-02-16T04:39:33.766Z,26.40
2019-02-16T04:42:08.992Z,24.83
2019-02-16T04:44:43.943Z,26.60
2019-02-16T04:47:19.416Z,31.50
2019-02-16T04:49:54.702Z,26.03
2019-02-16T04:52:34.882Z,19.60
2019-02-16T04:55:07.550Z,37.27
2019-02-16T04:57:42.569Z,31.80
2019-02-16T05:00:18.271Z,31.53
2019-02-16T05:02:53.318Z,29.50
2019-02-16T05:05:28.347Z,32.03
2019-02-16T05:08:03.476Z,31.57
2019-02-16T05:10:39.509Z,26.00
2019-02-16T05:13:14.528Z,26.47
2019-02-16T05:15:49.571Z,31.37
2019-02-16T05:18:25.027Z,28.33
2019-02-16T05:21:01.063Z,35.90
2019-02-16T05:23:36.146Z,23.67
2019-02-16T05:26:12.163Z,26.83
2019-02-16T05:28:47.187Z,27.60
2019-02-16T05:31:22.322Z,20.17
2019-02-16T05:33:57.337Z,25.60
2019-02-16T05:36:32.372Z,29.00
2019-02-16T05:39:07.388Z,21.40
2019-02-16T05:41:42.415Z,23.80
2019-02-16T05:44:17.729Z,27.93
2019-02-16T05:46:52.766Z,24.07
2019-02-16T05:49:27.801Z,34.30
2019-02-16T05:52:03.146Z,25.47
2019-02-16T05:54:40.133Z,28.17
2019-02-16T05:57:15.195Z,26.13
2019-02-16T05:59:49.974Z,27.17
2019-02-16T06:02:24.738Z,27.00
2019-02-16T06:04:59.983Z,26.57
2019-02-16T06:07:35.311Z,29.53
2019-02-16T06:10:10.917Z,26.73
2019-02-16T06:12:46.302Z,27.37
2019-02-16T06:15:21.986Z,24.13
2019-02-16T06:17:57.742Z,26.17
2019-02-16T06:20:33.317Z,26.03
2019-02-16T06:23:09.755Z,26.60
2019-02-16T06:25:45.319Z,30.67
2019-02-16T06:28:20.974Z,31.97
2019-02-16T06:30:56.030Z,28.80
2019-02-16T06:33:31.388Z,31.60
2019-02-16T06:36:08.982Z,35.67
2019-02-16T06:38:44.026Z,26.97
2019-02-16T06:41:19.467Z,43.03
2019-02-16T06:43:54.814Z,29.90
2019-02-16T06:46:29.820Z,38.07
2019-02-16T06:49:06.601Z,26.37
2019-02-16T06:51:42.569Z,24.20
2019-02-16T06:54:19.450Z,28.73
2019-02-16T06:57:02.681Z,19.23
2019-02-16T06:59:37.725Z,19.30
2019-02-16T07:02:14.957Z,24.97
2019-02-16T07:04:50.247Z,26.03
2019-02-16T07:07:25.375Z,24.70
2019-02-16T07:10:01.360Z,27.80
2019-02-16T07:12:36.512Z,21.43
2019-02-16T07:15:11.466Z,23.33
2019-02-16T07:17:48.583Z,26.27
2019-02-16T07:20:24.030Z,23.53
2019-02-16T07:22:59.055Z,39.27
2019-02-16T07:25:35.774Z,17.50
2019-02-16T07:28:13.766Z,23.00
2019-02-16T07:30:49.091Z,20.50
2019-02-16T07:33:24.546Z,28.57
2019-02-16T07:36:00.510Z,41.60
2019-02-16T07:38:36.157Z,22.73
2019-02-16T07:41:11.041Z,26.70
2019-02-16T07:43:50.847Z,18.63
2019-02-16T07:46:34.564Z,22.50
2019-02-16T07:49:24.057Z,16.03
2019-02-16T07:52:07.278Z,19.33
2019-02-16T07:54:45.174Z,18.83
2019-02-16T07:57:27.733Z,30.50
2019-02-16T08:00:04.473Z,20.37
2019-02-16T08:02:55.565Z,18.80
2019-02-16T08:05:41.675Z,29.00
2019-02-16T08:08:25.920Z,22.57
2019-02-16T08:11:03.014Z,22.90
2019-02-16T08:13:39.979Z,23.73
2019-02-16T08:16:24.418Z,26.37
2019-02-16T08:19:07.981Z,24.50
2019-02-16T08:21:55.341Z,25.80
2019-02-16T08:24:39.074Z,20.03
2019-02-16T08:27:35.200Z,18.83
2019-02-16T08:30:11.840Z,17.53
2019-02-16T08:32:48.538Z,16.90
2019-02-16T08:35:29.134Z,19.33
2019-02-16T08:38:06.989Z,27.17
2019-02-16T08:40:43.863Z,24.23
2019-02-16T08:43:23.314Z,22.20
2019-02-16T08:46:11.867Z,25.77
2019-02-16T08:48:56.338Z,24.93
2019-02-16T08:51:33.515Z,20.30
2019-02-16T08:54:11.660Z,16.13
2019-02-16T08:56:48.516Z,17.57
2019-02-16T08:59:34.439Z,20.43
2019-02-16T09:02:22.325Z,18.90
2019-02-16T09:05:02.305Z,23.43
2019-02-16T09:07:53.439Z,23.47
2019-02-16T09:10:30.078Z,31.50
2019-02-16T09:13:10.166Z,26.10
2019-02-16T09:16:01.761Z,27.53
2019-02-16T09:18:38.382Z,22.60
2019-02-16T09:21:28.923Z,21.50
2019-02-16T09:24:05.947Z,20.43
2019-02-16T09:26:50.103Z,17.90
2019-02-16T09:29:26.790Z,14.57
2019-02-16T09:32:22.818Z,23.53
2019-02-16T09:35:10.985Z,26.63
2019-02-16T09:37:47.327Z,17.17
2019-02-16T09:40:26.555Z,20.73
2019-02-16T09:43:10.533Z,21.60
2019-02-16T09:45:55.355Z,21.45
2019-02-16T09:48:42.251Z,34.90
2019-02-16T09:51:39.874Z,28.73
2019-02-16T09:54:27.817Z,21.23
2019-02-16T09:57:05.034Z,17.70
2019-02-16T09:59:45.026Z,26.67
2019-02-16T10:02:33.392Z,18.12
2019-02-16T10:05:21.493Z,24.77
2019-02-16T10:08:08.494Z,12.20
2019-02-16T10:11:05.953Z,17.20
2019-02-16T10:13:51.190Z,20.90
2019-02-16T10:16:30.869Z,24.53
2019-02-16T10:19:10.617Z,21.93
2019-02-16T10:21:51.843Z,15.40
2019-02-16T10:24:37.582Z,26.53
2019-02-16T10:27:14.803Z,33.80
2019-02-16T10:29:59.911Z,16.97
2019-02-16T10:32:55.315Z,17.83
2019-02-16T10:35:36.716Z,21.50
2019-02-16T10:38:24.767Z,19.50
2019-02-16T10:41:18.834Z,24.00
2019-02-16T10:43:58.303Z,18.70
2019-02-16T10:46:44.097Z,19.30
2019-02-16T10:49:25.424Z,46.77
2019-02-16T10:52:04.120Z,50.63
2019-02-16T10:54:50.946Z,66.67
2019-02-16T10:57:27.911Z,19.43
2019-02-16T11:00:17.761Z,21.30
2019-02-16T11:02:58.963Z,26.90
2019-02-16T11:05:42.838Z,34.50
2019-02-16T11:08:19.212Z,47.20
2019-02-16T11:11:04.570Z,37.50
2019-02-16T11:13:45.460Z,25.17
2019-02-16T11:16:45.230Z,27.22
2019-02-16T11:19:26.972Z,31.43
2019-02-16T11:22:05.264Z,27.17
2019-02-16T11:24:45.771Z,27.73
2019-02-16T11:27:29.212Z,25.27
2019-02-16T11:30:11.364Z,21.47
2019-02-16T11:32:51.647Z,14.47
2019-02-16T11:35:51.580Z,26.23
2019-02-16T11:38:28.411Z,66.23
2019-02-16T11:41:19.020Z,14.63
2019-02-16T11:44:07.007Z,27.13
2019-02-16T11:47:04.207Z,36.30
2019-02-16T11:49:47.132Z,29.07
2019-02-16T11:52:24.908Z,19.53
2019-02-16T11:55:21.531Z,21.37
2019-02-16T11:58:02.229Z,22.60
2019-02-16T12:00:57.063Z,38.30
2019-02-16T12:03:37.011Z,28.13
2019-02-16T12:06:15.851Z,24.20
2019-02-16T12:09:11.490Z,15.03
2019-02-16T12:12:11.324Z,11.97
2019-02-16T12:15:03.750Z,20.83
2019-02-16T12:17:43.617Z,39.40
2019-02-16T12:20:33.435Z,25.43
2019-02-16T12:23:15.792Z,20.40
2019-02-16T12:25:58.694Z,45.53
2019-02-16T12:28:36.161Z,35.73
2019-02-16T12:31:16.265Z,20.50
2019-02-16T12:34:06.723Z,28.83
2019-02-16T12:36:50.144Z,22.13
2019-02-16T12:39:27.339Z,31.57
2019-02-16T12:42:07.897Z,12.00
2019-02-16T12:44:44.711Z,38.17
2019-02-16T12:47:24.333Z,15.13
2019-02-16T12:50:07.758Z,39.17
2019-02-16T12:52:48.243Z,15.87
2019-02-16T12:55:35.695Z,23.33
2019-02-16T12:58:16.102Z,24.33
2019-02-16T13:00:58.166Z,26.07
2019-02-16T13:03:35.102Z,31.43
2019-02-16T13:06:32.026Z,17.10
2019-02-16T13:09:23.189Z,13.00
2019-02-16T13:12:00.249Z,24.90
2019-02-16T13:14:49.788Z,19.00
2019-02-16T13:17:29.747Z,14.20
2019-02-16T13:20:13.603Z,16.17
2019-02-16T13:23:07.875Z,23.57
2019-02-16T13:25:47.716Z,23.90
2019-02-16T13:28:43.860Z,14.93
2019-02-16T13:31:37.423Z,14.37
2019-02-16T13:34:20.587Z,13.03
2019-02-16T13:37:07.729Z,11.13
2019-02-16T13:39:51.232Z,13.30
2019-02-16T13:42:34.009Z,9.37
2019-02-16T13:45:18.279Z,13.93
2019-02-16T13:47:56.029Z,12.07
2019-02-16T13:50:35.648Z,14.43
2019-02-16T13:53:12.391Z,18.43
2019-02-16T13:55:50.113Z,14.80
2019-02-16T13:58:37.038Z,13.13
2019-02-16T14:01:13.810Z,25.23
2019-02-16T14:04:08.215Z,15.97
2019-02-16T14:06:47.778Z,13.63
2019-02-16T14:09:24.542Z,12.53
2019-02-16T14:12:04.529Z,13.57
2019-02-16T14:14:58.813Z,19.57
2019-02-16T14:17:36.567Z,34.60
2019-02-16T14:20:11.752Z,16.43
2019-02-16T14:22:47.027Z,20.43
2019-02-16T14:25:23.901Z,12.83
2019-02-16T14:28:00.077Z,12.03
2019-02-16T14:30:35.647Z,20.33
2019-02-16T14:33:11.387Z,12.63
2019-02-16T14:35:46.798Z,19.30
2019-02-16T14:38:27.364Z,17.83
2019-02-16T14:41:04.762Z,19.13
2019-02-16T14:43:40.567Z,18.47
2019-02-16T14:46:16.033Z,17.37
2019-02-16T14:48:51.242Z,24.47
2019-02-16T14:51:26.550Z,21.63
2019-02-16T14:54:01.964Z,14.47
2019-02-16T14:56:38.734Z,24.60
2019-02-16T14:59:13.820Z,15.37
2019-02-16T15:01:49.424Z,23.40
2019-02-16T15:04:25.083Z,40.07
2019-02-16T15:07:00.517Z,18.23
2019-02-16T15:09:35.269Z,38.10
2019-02-16T15:12:11.552Z,20.17
2019-02-16T15:14:47.713Z,33.93
2019-02-16T15:17:24.495Z,17.63
2019-02-16T15:19:59.347Z,17.13
2019-02-16T15:22:34.791Z,11.83
2019-02-16T15:25:12.052Z,12.07
2019-02-16T15:27:48.192Z,13.03
2019-02-16T15:30:23.583Z,21.73
2019-02-16T15:32:58.981Z,16.87
2019-02-16T15:35:34.185Z,36.90
2019-02-16T15:38:09.318Z,22.33
2019-02-16T15:40:44.555Z,16.30
2019-02-16T15:43:19.655Z,22.80
2019-02-16T15:45:55.771Z,21.47
2019-02-16T15:48:30.979Z,22.17
2019-02-16T15:51:06.095Z,25.23
2019-02-16T15:53:44.482Z,17.00
2019-02-16T15:56:19.286Z,15.33
2019-02-16T15:58:57.956Z,17.47
2019-02-16T16:01:33.172Z,19.83
2019-02-16T16:04:08.266Z,10.93
2019-02-16T16:06:43.845Z,16.07
2019-02-16T16:09:23.261Z,13.93
2019-02-16T16:12:00.906Z,15.10
2019-02-16T16:14:40.624Z,15.57
2019-02-16T16:17:27.665Z,18.93
2019-02-16T16:20:07.078Z,13.00
2019-02-16T16:22:57.956Z,22.63
2019-02-16T16:25:35.831Z,22.63
2019-02-16T16:28:16.690Z,15.73
2019-02-16T16:31:11.587Z,16.73
2019-02-16T16:34:06.361Z,18.00
2019-02-16T16:36:45.915Z,16.43
2019-02-16T16:39:22.727Z,19.23
2019-02-16T16:42:17.871Z,15.93
2019-02-16T16:45:11.100Z,19.87
2019-02-16T16:47:47.833Z,23.43
2019-02-16T16:50:38.064Z,33.03
2019-02-16T16:53:31.033Z,42.87
2019-02-16T16:56:14.317Z,22.57
2019-02-16T16:59:08.599Z,26.17
2019-02-16T17:01:57.216Z,26.70
2019-02-16T17:04:43.468Z,26.23
2019-02-16T17:07:27.282Z,33.63
2019-02-16T17:10:06.835Z,24.70
2019-02-16T17:12:43.622Z,31.27
2019-02-16T17:15:31.851Z,16.63
2019-02-16T17:18:28.130Z,32.03
2019-02-16T17:21:12.036Z,32.60
2019-02-16T17:23:52.151Z,26.47
2019-02-16T17:26:37.778Z,13.40
2019-02-16T17:29:13.840Z,23.47
2019-02-16T17:31:50.891Z,19.10
2019-02-16T17:34:37.286Z,20.47
2019-02-16T17:37:20.871Z,38.20
2019-02-16T17:40:00.419Z,26.17
2019-02-16T17:42:58.036Z,31.30
2019-02-16T17:45:41.655Z,30.37
2019-02-16T17:48:21.271Z,30.97
2019-02-16T17:51:01.106Z,39.33
2019-02-16T17:53:48.411Z,32.30
2019-02-16T17:56:25.234Z,33.17
2019-02-16T17:59:02.699Z,33.77
2019-02-16T18:01:39.465Z,33.67
2019-02-16T18:04:26.018Z,29.13
2019-02-16T18:07:09.028Z,33.37
2019-02-16T18:09:52.306Z,34.47
2019-02-16T18:12:31.920Z,33.77
2019-02-16T18:15:20.017Z,37.40
2019-02-16T18:17:57.956Z,28.10
2019-02-16T18:20:34.849Z,36.33
2019-02-16T18:23:20.790Z,38.60
2019-02-16T18:26:01.334Z,37.57
2019-02-16T18:28:38.372Z,38.10
2019-02-16T18:31:32.596Z,38.00
2019-02-16T18:34:19.550Z,35.03
2019-02-16T18:37:03.219Z,51.43
2019-02-16T18:39:56.518Z,31.23
2019-02-16T18:42:49.529Z,33.90
2019-02-16T18:45:39.423Z,49.73
2019-02-16T18:48:22.816Z,53.67
2019-02-16T18:51:06.815Z,51.27
2019-02-16T18:54:00.042Z,35.43
2019-02-16T18:57:06.108Z,59.37
2019-02-16T18:59:39.411Z,76.77
2019-02-16T19:02:22.036Z,67.63
2019-02-16T19:05:09.534Z,36.70
2019-02-16T19:07:47.914Z,33.63
2019-02-16T19:10:25.996Z,61.47
2019-02-16T19:13:03.041Z,41.17
2019-02-16T19:15:46.799Z,46.13
2019-02-16T19:18:36.409Z,56.23
2019-02-16T19:21:19.603Z,50.53
2019-02-16T19:24:02.962Z,54.20
2019-02-16T19:26:57.340Z,82.10
2019-02-16T19:29:37.127Z,41.53
2019-02-16T19:32:14.164Z,36.00
2019-02-16T19:35:08.662Z,42.13
2019-02-16T19:37:55.777Z,29.23
2019-02-16T19:40:35.904Z,42.03
2019-02-16T19:43:15.484Z,49.73
2019-02-16T19:45:59.716Z,43.53
2019-02-16T19:48:39.752Z,38.07
2019-02-16T19:51:19.207Z,36.80
2019-02-16T19:53:56.183Z,38.97
2019-02-16T19:56:39.802Z,43.67
2019-02-16T19:59:36.147Z,46.43
2019-02-16T20:02:15.327Z,41.90
2019-02-16T20:04:54.982Z,33.27
2019-02-16T20:07:41.484Z,30.00
2019-02-16T20:10:24.601Z,63.57
2019-02-16T20:13:11.348Z,40.03
2019-02-16T20:15:58.711Z,41.97
2019-02-16T20:18:35.783Z,49.50
2019-02-16T20:21:32.140Z,31.07
2019-02-16T20:24:25.588Z,32.87
2019-02-16T20:27:23.354Z,27.97
2019-02-16T20:30:00.432Z,45.17
2019-02-16T20:32:54.873Z,38.27
2019-02-16T20:35:34.704Z,42.93
2019-02-16T20:38:14.421Z,33.63
2019-02-16T20:41:01.235Z,41.33
2019-02-16T20:43:57.421Z,35.30
2019-02-16T20:46:34.760Z,39.20
2019-02-16T20:49:19.783Z,33.97
2019-02-16T20:51:56.520Z,32.10
2019-02-16T20:54:36.320Z,34.07
2019-02-16T20:57:19.941Z,31.73
2019-02-16T21:00:08.196Z,25.73
2019-02-16T21:02:55.039Z,28.03
2019-02-16T21:05:35.632Z,25.40
2019-02-16T21:08:32.369Z,39.33
2019-02-16T21:11:09.055Z,44.30
2019-02-16T21:13:56.154Z,38.63
2019-02-16T21:16:39.777Z,43.70
2019-02-16T21:19:19.714Z,35.47
2019-02-16T21:22:09.126Z,39.93
2019-02-16T21:24:47.335Z,32.93
2019-02-16T21:27:31.127Z,41.17
2019-02-16T21:30:31.474Z,36.60
2019-02-16T21:33:14.854Z,47.00
2019-02-16T21:36:01.305Z,45.13
2019-02-16T21:38:45.234Z,48.73
2019-02-16T21:41:28.804Z,69.50
2019-02-16T21:44:13.773Z,42.90
2019-02-16T21:47:03.281Z,52.37
2019-02-16T21:49:39.989Z,108.33
2019-02-16T21:52:23.948Z,84.70
2019-02-16T21:59:52.554Z,47.03
2019-02-16T22:06:04.581Z,51.37
2019-02-16T22:09:00.881Z,41.20
2019-02-16T22:11:39.552Z,45.73
2019-02-16T22:14:14.702Z,41.00
2019-02-16T22:16:49.821Z,40.37
2019-02-16T22:19:25.885Z,39.57
2019-02-16T22:22:00.987Z,36.67
2019-02-16T22:24:36.158Z,70.30
2019-02-16T22:27:11.681Z,37.50
2019-02-16T22:29:46.905Z,41.50
2019-02-16T22:32:22.375Z,46.40
2019-02-16T22:34:57.433Z,55.20
2019-02-16T22:37:32.589Z,48.63
2019-02-16T22:40:10.091Z,55.73
2019-02-16T22:42:45.149Z,45.17
2019-02-16T22:45:20.762Z,51.07
2019-02-16T22:47:58.126Z,43.07
2019-02-16T22:50:33.602Z,50.00
2019-02-16T22:53:08.693Z,48.50
2019-02-16T22:55:45.078Z,49.07
2019-02-16T22:58:28.543Z,51.37
2019-02-16T23:00:59.067Z,52.77
2019-02-16T23:03:35.749Z,51.47
2019-02-16T23:06:10.579Z,47.97
2019-02-16T23:08:45.486Z,42.10
2019-02-16T23:11:21.622Z,45.17
2019-02-16T23:13:57.696Z,53.37
2019-02-16T23:16:32.829Z,47.33
2019-02-16T23:19:08.282Z,50.73
2019-02-16T23:21:43.710Z,45.70
2019-02-16T23:24:21.765Z,45.23
2019-02-16T23:26:58.247Z,49.20
2019-02-16T23:29:34.387Z,56.13
2019-02-16T23:32:10.189Z,55.97
2019-02-16T23:34:45.265Z,44.73
2019-02-16T23:37:22.629Z,46.57
2019-02-16T23:39:57.657Z,50.87
2019-02-16T23:42:33.865Z,40.27
2019-02-16T23:45:10.220Z,43.93
2019-02-16T23:47:45.531Z,46.43
2019-02-16T23:50:20.850Z,37.87
2019-02-16T23:52:55.940Z,53.77
2019-02-16T23:55:31.266Z,34.27
2019-02-16T23:58:06.322Z,46.70
